Time;durP1;ratioP1;P1;durP2;ratioP2;P2;SDS_P1;SDS_P2;PMS_P1;PMS_P2;Temp;Humidity;BMP_temperature;BMP_pressure;BME280_temperature;BME280_humidity;BME280_pressure;Samples;Min_cycle;Max_cycle;Signal;HPM_P1;HPM_P2
2022/07/24 00:02:05;;;;;;;9.05;4.18;;;13.50;99.90;;;;;;5047044;28;20045;-46
2022/07/24 00:04:30;;;;;;;4.93;4.07;;;13.50;99.90;;;;;;5047175;28;20558;-46
2022/07/24 00:06:56;;;;;;;5.18;4.15;;;13.50;99.90;;;;;;5046399;28;20059;-47
2022/07/24 00:09:21;;;;;;;6.00;4.38;;;13.50;99.90;;;;;;5046989;28;20399;-46
2022/07/24 00:11:47;;;;;;;5.07;4.07;;;13.40;99.90;;;;;;5046397;28;20475;-47
2022/07/24 00:14:13;;;;;;;7.65;4.85;;;13.50;99.90;;;;;;5029251;28;20390;-47
2022/07/24 00:16:39;;;;;;;4.90;4.30;;;13.50;99.90;;;;;;5047214;28;20055;-48
2022/07/24 00:19:05;;;;;;;6.78;5.47;;;14.10;99.90;;;;;;5047057;28;20099;-47
2022/07/24 00:21:30;;;;;;;6.18;4.43;;;13.50;99.90;;;;;;5046387;28;20569;-46
2022/07/24 00:23:56;;;;;;;5.93;4.57;;;13.40;99.90;;;;;;5046472;28;20132;-47
2022/07/24 00:26:22;;;;;;;5.38;3.97;;;13.40;99.90;;;;;;5046809;28;20120;-47
2022/07/24 00:28:48;;;;;;;6.22;4.97;;;13.40;99.90;;;;;;5046872;28;20040;-46
2022/07/24 00:31:14;;;;;;;5.20;4.70;;;13.40;99.90;;;;;;5047905;28;20480;-48
2022/07/24 00:33:40;;;;;;;5.32;4.40;;;13.40;99.90;;;;;;5050112;28;20037;-47
2022/07/24 00:36:06;;;;;;;7.80;5.50;;;13.40;99.90;;;;;;5050281;28;20041;-47
2022/07/24 00:38:32;;;;;;;7.05;5.20;;;13.40;99.90;;;;;;5050028;28;20041;-48
2022/07/24 00:40:58;;;;;;;9.18;5.10;;;13.40;99.90;;;;;;5050136;28;20056;-47
2022/07/24 00:43:23;;;;;;;6.03;4.38;;;13.40;99.90;;;;;;5050145;28;20472;-47
2022/07/24 00:45:49;;;;;;;5.35;4.75;;;13.40;99.90;;;;;;5049951;28;20041;-47
2022/07/24 00:48:14;;;;;;;6.15;5.00;;;13.40;99.90;;;;;;5050585;28;20037;-47
2022/07/24 00:50:40;;;;;;;7.82;5.60;;;13.40;99.90;;;;;;5050367;28;20037;-46
2022/07/24 00:53:07;;;;;;;6.65;5.13;;;13.40;99.90;;;;;;5050511;28;20394;-47
2022/07/24 00:55:34;;;;;;;6.03;4.80;;;13.40;99.90;;;;;;5050236;28;20451;-47
2022/07/24 00:57:59;;;;;;;7.70;5.65;;;13.40;99.90;;;;;;5050357;28;20390;-47
2022/07/24 01:00:25;;;;;;;7.75;5.18;;;13.40;99.90;;;;;;5050448;28;20037;-46
2022/07/24 01:02:51;;;;;;;8.23;4.63;;;13.50;99.90;;;;;;5031789;28;20074;-49
2022/07/24 01:05:18;;;;;;;10.60;5.30;;;13.40;99.90;;;;;;5049678;28;20052;-47
2022/07/24 01:07:44;;;;;;;7.13;5.45;;;13.40;99.90;;;;;;5049205;28;20049;-47
2022/07/24 01:10:10;;;;;;;6.97;5.25;;;13.70;99.90;;;;;;5049287;28;20533;-47
2022/07/24 01:12:38;;;;;;;5.80;5.20;;;13.50;99.90;;;;;;5049591;28;20037;-47
2022/07/24 01:15:06;;;;;;;6.20;5.22;;;13.40;99.90;;;;;;5049311;28;20029;-47
2022/07/24 01:17:33;;;;;;;6.18;5.47;;;13.40;99.90;;;;;;5049586;28;20056;-47
2022/07/24 01:19:59;;;;;;;5.85;5.25;;;13.40;99.90;;;;;;5049276;28;20052;-46
2022/07/24 01:22:26;;;;;;;6.35;5.13;;;13.40;99.90;;;;;;5049157;28;20040;-48
2022/07/24 01:24:53;;;;;;;7.18;4.88;;;13.30;99.90;;;;;;5049602;28;20084;-47
2022/07/24 01:27:18;;;;;;;6.32;4.85;;;13.20;99.90;;;;;;5049236;28;20096;-47
2022/07/24 01:29:44;;;;;;;7.55;5.63;;;13.30;99.90;;;;;;5049391;28;20045;-46
2022/07/24 01:32:10;;;;;;;6.03;5.05;;;13.30;99.90;;;;;;5049419;28;20041;-47
2022/07/24 01:34:36;;;;;;;5.57;4.50;;;13.40;99.90;;;;;;5031226;28;20478;-48
2022/07/24 01:37:02;;;;;;;6.25;5.65;;;13.10;99.90;;;;;;5049317;28;20039;-47
2022/07/24 01:39:27;;;;;;;6.13;5.22;;;13.10;99.90;;;;;;5049618;28;20040;-47
2022/07/24 01:41:53;;;;;;;6.07;5.38;;;13.20;99.90;;;;;;5049131;28;20044;-47
2022/07/24 01:44:19;;;;;;;5.20;4.70;;;13.20;99.90;;;;;;5049389;28;20072;-47
2022/07/24 01:46:45;;;;;;;6.95;4.90;;;13.20;99.90;;;;;;5049569;28;20529;-50
2022/07/24 01:49:11;;;;;;;7.35;5.03;;;13.20;99.90;;;;;;5048903;28;20403;-47
2022/07/24 01:51:36;;;;;;;6.38;5.13;;;13.20;99.90;;;;;;5048977;28;20052;-48
2022/07/24 01:54:05;;;;;;;8.25;5.38;;;13.20;99.90;;;;;;5049177;28;20536;-47
2022/07/24 01:56:32;;;;;;;6.53;5.40;;;13.20;99.90;;;;;;5049269;28;20231;-47
2022/07/24 01:58:58;;;;;;;6.85;5.70;;;13.20;99.90;;;;;;5048724;28;20041;-47
2022/07/24 02:01:24;;;;;;;5.43;4.63;;;13.20;99.90;;;;;;5049351;28;20037;-47
2022/07/24 02:03:50;;;;;;;6.43;5.30;;;13.30;99.90;;;;;;5048801;28;20179;-48
2022/07/24 02:06:16;;;;;;;7.30;5.43;;;13.20;99.90;;;;;;5049024;28;20124;-48
2022/07/24 02:08:42;;;;;;;5.80;5.30;;;13.30;99.90;;;;;;5048824;28;20056;-47
2022/07/24 02:11:07;;;;;;;6.40;5.35;;;13.30;99.90;;;;;;5048336;28;20430;-48
2022/07/24 02:13:33;;;;;;;7.10;6.38;;;13.30;99.90;;;;;;5048942;28;20083;-47
2022/07/24 02:15:59;;;;;;;6.00;5.40;;;13.60;99.90;;;;;;5048812;28;20044;-48
2022/07/24 02:18:25;;;;;;;9.05;5.90;;;13.30;99.90;;;;;;5048734;28;20438;-48
2022/07/24 02:20:50;;;;;;;6.78;5.88;;;13.30;99.90;;;;;;5048236;28;20037;-47
2022/07/24 02:23:19;;;;;;;8.10;5.95;;;13.30;99.90;;;;;;5030490;28;20124;-48
2022/07/24 02:25:49;;;;;;;8.15;4.90;;;13.30;99.90;;;;;;5048327;28;20059;-47
2022/07/24 02:28:15;;;;;;;7.75;6.05;;;13.30;99.90;;;;;;5048361;28;20036;-47
2022/07/24 02:30:41;;;;;;;7.85;5.90;;;14.20;99.90;;;;;;5048913;28;20467;-47
2022/07/24 02:33:07;;;;;;;6.10;5.38;;;13.30;99.90;;;;;;5049005;28;20319;-47
2022/07/24 02:35:34;;;;;;;8.40;5.80;;;13.40;99.90;;;;;;5047969;28;20045;-47
2022/07/24 02:38:00;;;;;;;7.88;6.07;;;13.40;99.90;;;;;;5048039;28;20036;-47
2022/07/24 02:40:26;;;;;;;10.80;5.55;;;13.40;99.90;;;;;;5048095;28;20049;-47
2022/07/24 02:42:52;;;;;;;6.65;5.95;;;13.20;99.90;;;;;;5047757;28;20053;-47
2022/07/24 02:45:18;;;;;;;7.45;6.47;;;14.10;99.90;;;;;;5047683;28;20084;-47
2022/07/24 02:47:52;;;;;;;8.57;6.25;;;13.50;99.90;;;;;;5047935;28;20102;-46
2022/07/24 02:50:19;;;;;;;8.45;6.25;;;13.50;99.90;;;;;;5048157;28;20044;-47
2022/07/24 02:52:45;;;;;;;6.57;5.80;;;13.30;99.90;;;;;;5047770;28;20041;-47
2022/07/24 02:55:11;;;;;;;9.07;7.07;;;13.20;99.90;;;;;;5047484;28;20072;-46
2022/07/24 02:57:37;;;;;;;7.15;5.03;;;14.30;99.90;;;;;;5047652;28;20057;-46
2022/07/24 03:00:07;;;;;;;8.63;6.72;;;13.20;99.90;;;;;;5047751;28;20049;-48
2022/07/24 03:02:33;;;;;;;7.20;5.90;;;13.20;99.90;;;;;;5047660;28;20055;-47
2022/07/24 03:04:58;;;;;;;8.63;6.00;;;13.20;99.90;;;;;;5047457;28;20045;-46
2022/07/24 03:07:24;;;;;;;6.75;6.00;;;13.20;99.90;;;;;;5047014;28;20061;-47
2022/07/24 03:09:50;;;;;;;9.38;5.95;;;13.20;99.90;;;;;;5047224;28;20529;-46
2022/07/24 03:12:15;;;;;;;9.20;6.22;;;13.30;99.90;;;;;;5047271;28;20064;-47
2022/07/24 03:14:41;;;;;;;8.38;6.13;;;13.00;99.90;;;;;;5047754;28;20029;-48
2022/07/24 03:17:06;;;;;;;9.73;7.10;;;13.20;99.90;;;;;;5047767;28;20049;-47
2022/07/24 03:19:32;;;;;;;8.63;5.75;;;13.30;99.90;;;;;;5047745;28;20115;-48
2022/07/24 03:21:58;;;;;;;8.57;5.88;;;13.30;99.90;;;;;;5047351;28;20541;-47
2022/07/24 03:24:23;;;;;;;7.43;5.78;;;13.30;99.90;;;;;;5047629;28;20044;-47
2022/07/24 03:26:49;;;;;;;8.13;5.75;;;13.30;99.90;;;;;;5047612;28;20045;-47
2022/07/24 03:29:15;;;;;;;8.70;6.20;;;13.30;99.90;;;;;;5047507;28;20099;-47
2022/07/24 03:31:41;;;;;;;7.93;5.50;;;13.30;99.90;;;;;;5047285;28;20045;-47
2022/07/24 03:34:06;;;;;;;6.22;5.45;;;13.20;99.90;;;;;;5046886;28;20052;-47
2022/07/24 03:36:32;;;;;;;6.82;5.78;;;13.30;99.90;;;;;;5047453;28;20636;-47
2022/07/24 03:38:58;;;;;;;7.35;6.38;;;13.40;99.90;;;;;;5047699;28;20081;-47
2022/07/24 03:41:23;;;;;;;8.10;5.82;;;13.40;99.90;;;;;;5047612;28;20120;-47
2022/07/24 03:43:49;;;;;;;6.60;5.90;;;13.40;99.90;;;;;;5047640;28;20497;-47
2022/07/24 03:46:15;;;;;;;7.30;6.60;;;14.30;99.90;;;;;;5047299;28;20045;-47
2022/07/24 03:48:41;;;;;;;8.90;6.15;;;13.40;99.90;;;;;;5046926;28;20120;-47
2022/07/24 03:51:06;;;;;;;6.97;6.28;;;13.50;99.90;;;;;;5047243;28;20124;-48
2022/07/24 03:53:32;;;;;;;7.28;5.70;;;14.50;99.90;;;;;;5047587;28;20041;-47
2022/07/24 03:55:58;;;;;;;7.32;6.13;;;13.40;99.90;;;;;;5047386;28;20042;-48
2022/07/24 03:58:23;;;;;;;9.88;6.45;;;13.60;99.90;;;;;;5047806;28;20121;-47
2022/07/24 04:00:49;;;;;;;7.07;5.30;;;13.60;99.90;;;;;;5047511;28;20571;-47
2022/07/24 04:03:15;;;;;;;6.78;5.63;;;13.90;99.90;;;;;;5046838;28;20418;-50
2022/07/24 04:05:40;;;;;;;7.82;6.47;;;13.70;99.90;;;;;;5047731;28;20128;-48
2022/07/24 04:08:06;;;;;;;7.47;4.75;;;13.70;99.90;;;;;;5050539;28;20491;-47
2022/07/24 04:10:31;;;;;;;7.32;5.43;;;13.80;99.90;;;;;;5050761;28;20040;-48
2022/07/24 04:12:57;;;;;;;9.77;6.03;;;13.80;99.90;;;;;;5051157;28;20044;-47
2022/07/24 04:15:23;;;;;;;6.47;5.30;;;13.80;99.90;;;;;;5033422;28;20051;-47
2022/07/24 04:17:48;;;;;;;6.80;5.10;;;13.90;99.90;;;;;;5051119;28;20045;-48
2022/07/24 04:20:14;;;;;;;9.15;6.07;;;14.00;99.90;;;;;;5050649;28;20045;-47
2022/07/24 04:22:40;;;;;;;7.13;5.55;;;14.00;99.90;;;;;;5051110;28;20040;-47
2022/07/24 04:25:07;;;;;;;7.28;5.20;;;12.40;99.90;;;;;;5050553;28;20094;-47
2022/07/24 04:27:33;;;;;;;8.32;5.93;;;14.10;99.90;;;;;;5050656;28;20041;-47
2022/07/24 04:29:59;;;;;;;8.95;5.47;;;14.10;99.90;;;;;;5050402;28;20052;-48
2022/07/24 04:32:25;;;;;;;8.25;5.75;;;14.10;99.90;;;;;;5050736;28;20095;-47
2022/07/24 04:34:51;;;;;;;8.10;5.90;;;14.10;99.90;;;;;;5050592;28;20048;-48
2022/07/24 04:37:16;;;;;;;6.97;5.30;;;14.00;99.90;;;;;;5050257;28;20548;-47
2022/07/24 04:39:42;;;;;;;8.48;5.60;;;14.20;99.90;;;;;;5050200;28;20040;-47
2022/07/24 04:42:07;;;;;;;5.93;4.95;;;14.10;99.90;;;;;;5050380;28;20544;-47
2022/07/24 04:44:33;;;;;;;5.65;4.80;;;14.20;99.90;;;;;;5050197;28;20047;-48
2022/07/24 04:46:59;;;;;;;5.70;5.20;;;14.20;99.90;;;;;;5050162;28;20394;-47
2022/07/24 04:49:24;;;;;;;6.32;5.32;;;14.20;99.90;;;;;;5031250;28;20056;-47
2022/07/24 04:51:50;;;;;;;6.97;5.40;;;14.20;99.90;;;;;;5049917;28;20041;-47
2022/07/24 04:54:16;;;;;;;5.93;5.25;;;14.30;99.90;;;;;;5049906;28;20041;-47
2022/07/24 04:56:41;;;;;;;7.07;5.13;;;14.60;99.90;;;;;;5049766;28;20433;-47
2022/07/24 04:59:07;;;;;;;6.63;4.82;;;14.90;99.90;;;;;;5049882;28;20040;-48
2022/07/24 05:01:33;;;;;;;8.55;4.90;;;14.40;99.90;;;;;;5049708;28;20045;-47
2022/07/24 05:03:58;;;;;;;5.95;4.93;;;14.60;99.90;;;;;;5031868;28;20513;-47
2022/07/24 05:06:24;;;;;;;6.97;4.75;;;14.70;99.90;;;;;;5049790;28;20044;-48
2022/07/24 05:08:50;;;;;;;9.63;5.78;;;14.80;99.90;;;;;;5049811;28;20057;-49
2022/07/24 05:11:16;;;;;;;7.25;5.07;;;15.00;99.90;;;;;;5048466;28;20132;-47
2022/07/24 05:13:42;;;;;;;7.55;5.40;;;15.20;99.90;;;;;;5048694;28;20049;-47
2022/07/24 05:16:08;;;;;;;6.22;5.63;;;15.60;99.90;;;;;;5048336;28;20490;-47
2022/07/24 05:18:33;;;;;;;10.80;4.72;;;15.60;99.90;;;;;;5048761;28;20052;-47
2022/07/24 05:20:59;;;;;;;6.13;4.22;;;15.80;99.90;;;;;;5049032;28;20094;-47
2022/07/24 05:23:25;;;;;;;10.43;4.38;;;16.00;99.90;;;;;;5049125;28;20124;-47
2022/07/24 05:25:50;;;;;;;7.15;5.15;;;16.10;99.90;;;;;;5049072;28;20052;-47
2022/07/24 05:28:17;;;;;;;5.70;4.18;;;16.10;99.90;;;;;;5049373;28;20071;-48
2022/07/24 05:30:42;;;;;;;7.97;5.32;;;16.20;99.90;;;;;;5049493;28;20490;-47
2022/07/24 05:33:08;;;;;;;6.00;4.38;;;16.30;99.90;;;;;;5049417;28;20037;-48
2022/07/24 05:35:34;;;;;;;4.72;3.65;;;16.40;99.90;;;;;;5050065;28;20390;-47
2022/07/24 05:37:59;;;;;;;4.80;4.30;;;16.50;99.90;;;;;;5031848;28;20457;-47
2022/07/24 05:40:25;;;;;;;5.03;3.75;;;16.60;99.90;;;;;;5049438;28;20048;-47
2022/07/24 05:42:51;;;;;;;4.75;3.70;;;17.00;99.90;;;;;;5049321;28;20078;-46
2022/07/24 05:45:16;;;;;;;6.35;4.43;;;17.50;99.90;;;;;;5049657;28;20056;-47
2022/07/24 05:47:42;;;;;;;6.20;4.32;;;18.60;99.90;;;;;;5049915;28;20594;-47
2022/07/24 05:50:10;;;;;;;7.97;3.67;;;19.50;99.90;;;;;;5049508;28;20501;-47
2022/07/24 05:52:36;;;;;;;4.15;3.00;;;20.50;99.90;;;;;;5049120;28;20073;-49
2022/07/24 05:55:02;;;;;;;6.25;4.38;;;20.60;99.90;;;;;;5049260;28;20083;-47
2022/07/24 05:57:28;;;;;;;4.93;4.03;;;20.10;99.90;;;;;;5049601;28;20438;-48
2022/07/24 05:59:54;;;;;;;7.05;4.45;;;19.80;99.90;;;;;;5048968;28;20037;-49
2022/07/24 06:02:20;;;;;;;8.38;4.38;;;19.90;99.90;;;;;;5049119;28;20047;-47
2022/07/24 06:04:45;;;;;;;6.28;3.70;;;20.10;99.90;;;;;;5048739;28;20141;-49
2022/07/24 06:07:11;;;;;;;4.28;3.42;;;20.60;99.90;;;;;;5048703;28;20045;-48
2022/07/24 06:09:38;;;;;;;5.68;3.72;;;21.00;99.90;;;;;;5048686;28;20063;-48
2022/07/24 06:12:04;;;;;;;5.25;3.88;;;21.90;98.80;;;;;;5048730;28;20041;-48
2022/07/24 06:14:31;;;;;;;4.75;4.22;;;23.20;96.60;;;;;;5049007;28;20099;-47
2022/07/24 06:16:57;;;;;;;5.60;4.00;;;23.90;93.60;;;;;;5048320;28;20052;-47
2022/07/24 06:19:23;;;;;;;7.90;3.78;;;23.80;92.70;;;;;;5048222;28;20512;-48
2022/07/24 06:21:49;;;;;;;5.88;3.72;;;23.30;93.00;;;;;;5048095;28;20045;-48
2022/07/24 06:24:14;;;;;;;7.43;4.28;;;23.20;93.90;;;;;;5047311;28;20045;-49
2022/07/24 06:26:40;;;;;;;5.10;3.38;;;22.90;93.80;;;;;;5047608;28;20044;-48
2022/07/24 06:29:06;;;;;;;6.43;4.40;;;22.90;94.10;;;;;;5046901;28;20051;-50
2022/07/24 06:31:31;;;;;;;4.68;3.67;;;23.20;93.90;;;;;;5047689;28;20114;-50
2022/07/24 06:33:57;;;;;;;4.53;3.85;;;23.70;93.60;;;;;;5029646;28;20506;-50
2022/07/24 06:36:23;;;;;;;4.90;3.90;;;24.30;93.30;;;;;;5047443;28;20045;-50
2022/07/24 06:38:48;;;;;;;5.78;4.20;;;24.60;92.50;;;;;;5047587;28;20048;-51
2022/07/24 06:41:14;;;;;;;6.32;3.47;;;25.50;91.10;;;;;;5047580;28;20053;-51
2022/07/24 06:43:40;;;;;;;5.82;4.63;;;26.50;89.10;;;;;;5047706;28;20045;-52
2022/07/24 06:46:06;;;;;;;7.20;4.85;;;26.40;88.20;;;;;;5047069;28;20072;-50
2022/07/24 06:48:32;;;;;;;4.95;3.88;;;26.40;87.00;;;;;;5047104;28;20045;-51
2022/07/24 06:50:58;;;;;;;6.25;4.70;;;27.20;86.60;;;;;;5047140;28;20044;-50
2022/07/24 06:53:23;;;;;;;5.95;4.70;;;29.30;80.00;;;;;;5046843;28;20094;-52
2022/07/24 06:55:53;;;;;;;6.22;4.70;;;30.80;74.70;;;;;;5046743;28;20054;-53
2022/07/24 06:58:19;;;;;;;5.90;4.70;;;31.90;69.60;;;;;;5046755;28;20052;-53
2022/07/24 07:00:46;;;;;;;6.03;4.88;;;32.20;67.30;;;;;;5046794;28;20071;-52
2022/07/24 07:03:11;;;;;;;7.07;5.05;;;31.80;65.40;;;;;;5046889;28;20086;-51
2022/07/24 07:05:37;;;;;;;6.93;5.15;;;31.10;65.10;;;;;;5046762;28;20107;-51
2022/07/24 07:08:03;;;;;;;6.82;5.25;;;30.40;65.60;;;;;;5046629;28;20100;-52
2022/07/24 07:10:29;;;;;;;6.47;5.63;;;29.90;66.20;;;;;;5045974;28;20051;-52
2022/07/24 07:12:54;;;;;;;7.57;6.80;;;30.20;65.30;;;;;;5046859;28;20048;-50
2022/07/24 07:15:20;;;;;;;6.20;5.60;;;31.10;64.70;;;;;;5046500;28;20040;-52
2022/07/24 07:17:45;;;;;;;9.45;5.95;;;31.70;64.20;;;;;;5046819;28;20593;-49
2022/07/24 07:20:13;;;;;;;8.95;6.40;;;32.80;62.50;;;;;;5046538;28;20478;-53
2022/07/24 07:22:39;;;;;;;8.77;6.15;;;33.70;60.50;;;;;;5046952;28;20036;-51
2022/07/24 07:25:06;;;;;;;9.32;7.03;;;34.60;58.00;;;;;;5046369;28;20537;-50
2022/07/24 07:27:31;;;;;;;7.50;6.55;;;35.20;56.20;;;;;;5046936;28;20051;-52
2022/07/24 07:29:57;;;;;;;6.85;5.75;;;35.90;56.10;;;;;;5046401;28;20046;-52
2022/07/24 07:32:23;;;;;;;7.53;6.72;;;36.50;55.20;;;;;;5046764;28;20570;-52
2022/07/24 07:34:49;;;;;;;6.63;5.95;;;37.10;53.90;;;;;;5047153;28;20040;-53
2022/07/24 07:37:14;;;;;;;6.25;4.80;;;37.60;53.00;;;;;;5046570;28;20446;-51
2022/07/24 07:39:40;;;;;;;7.78;6.90;;;37.90;51.80;;;;;;5046936;28;20639;-52
2022/07/24 07:42:06;;;;;;;6.50;5.85;;;38.30;51.70;;;;;;5050366;28;20049;-53
2022/07/24 07:44:31;;;;;;;8.50;7.63;;;38.90;50.50;;;;;;5050540;28;20151;-53
2022/07/24 07:46:57;;;;;;;7.38;6.78;;;39.40;50.10;;;;;;5049925;28;20087;-54
2022/07/24 07:49:23;;;;;;;7.88;6.82;;;39.90;49.00;;;;;;5050097;28;20060;-53
2022/07/24 07:51:51;;;;;;;7.55;5.18;;;40.20;48.30;;;;;;5050153;28;20075;-54
2022/07/24 07:54:17;;;;;;;7.50;6.57;;;40.30;48.10;;;;;;5050139;28;20033;-53
2022/07/24 07:56:43;;;;;;;7.22;5.28;;;40.60;47.80;;;;;;5049730;28;20044;-54
2022/07/24 07:59:09;;;;;;;7.93;6.35;;;41.40;47.40;;;;;;5050316;28;20193;-53
2022/07/24 08:01:35;;;;;;;10.85;6.53;;;41.00;46.30;;;;;;5049558;28;20556;-53
2022/07/24 08:04:00;;;;;;;6.97;6.10;;;40.30;45.90;;;;;;5049665;28;20033;-53
2022/07/24 08:06:26;;;;;;;8.57;6.80;;;40.30;46.50;;;;;;5049481;28;20414;-53
2022/07/24 08:08:52;;;;;;;5.53;5.03;;;39.30;46.10;;;;;;5049337;28;20142;-52
2022/07/24 08:11:18;;;;;;;7.32;6.05;;;38.50;46.90;;;;;;5048984;28;20113;-53
2022/07/24 08:13:43;;;;;;;6.93;5.93;;;37.40;47.40;;;;;;5049919;28;20045;-52
2022/07/24 08:16:09;;;;;;;5.90;4.95;;;36.80;48.20;;;;;;5050085;28;20560;-53
2022/07/24 08:18:35;;;;;;;8.30;4.72;;;37.50;48.90;;;;;;5049676;28;20041;-53
2022/07/24 08:21:01;;;;;;;7.07;4.15;;;38.60;48.10;;;;;;5049633;28;20053;-52
2022/07/24 08:23:26;;;;;;;4.47;3.85;;;39.20;47.20;;;;;;5049181;28;20421;-53
2022/07/24 08:25:52;;;;;;;9.68;7.00;;;39.80;46.30;;;;;;5049284;28;20044;-52
2022/07/24 08:28:18;;;;;;;9.70;5.93;;;40.10;45.30;;;;;;5049682;28;20041;-49
2022/07/24 08:30:44;;;;;;;5.82;3.25;;;40.50;45.00;;;;;;5049241;28;20647;-53
2022/07/24 08:33:09;;;;;;;6.78;3.80;;;41.10;44.60;;;;;;5049701;28;20037;-53
2022/07/24 08:35:35;;;;;;;5.10;2.40;;;41.30;43.50;;;;;;5049012;28;20170;-53
2022/07/24 08:38:02;;;;;;;4.47;2.30;;;41.00;43.10;;;;;;5049091;28;20128;-53
2022/07/24 08:40:39;;;;;;;4.53;2.75;;;40.80;43.00;;;;;;5049292;28;20155;-53
2022/07/24 08:43:06;;;;;;;3.75;2.53;;;41.00;43.50;;;;;;5049111;28;20047;-54
2022/07/24 08:45:35;;;;;;;3.92;2.30;;;41.70;43.50;;;;;;5048794;28;20072;-53
2022/07/24 08:48:05;;;;;;;2.50;2.20;;;42.00;42.60;;;;;;5048855;28;20101;-53
2022/07/24 08:50:33;;;;;;;4.00;2.00;;;42.20;41.80;;;;;;5030869;28;20044;-54
2022/07/24 08:53:02;;;;;;;3.25;1.85;;;42.30;41.70;;;;;;5048153;28;20053;-53
2022/07/24 08:55:28;;;;;;;3.35;2.63;;;42.70;41.00;;;;;;5048796;28;20067;-53
2022/07/24 08:57:58;;;;;;;4.25;1.95;;;42.20;41.20;;;;;;5048181;28;20040;-53
2022/07/24 09:00:26;;;;;;;2.90;1.87;;;41.90;41.40;;;;;;5048585;28;20459;-54
2022/07/24 09:02:51;;;;;;;2.85;1.27;;;42.00;42.00;;;;;;5048559;28;20318;-52
2022/07/24 09:05:17;;;;;;;1.75;1.17;;;41.80;41.50;;;;;;5048741;28;20077;-53
2022/07/24 09:07:43;;;;;;;2.55;1.00;;;41.80;41.50;;;;;;5048112;28;20471;-51
2022/07/24 09:10:16;;;;;;;3.03;1.00;;;42.50;41.30;;;;;;5048470;28;20044;-53
2022/07/24 09:12:46;;;;;;;1.60;0.65;;;42.50;40.70;;;;;;5048787;28;20401;-53
2022/07/24 09:15:17;;;;;;;3.72;1.23;;;42.00;40.60;;;;;;5049328;28;20044;-53
2022/07/24 09:17:54;;;;;;;3.10;1.50;;;40.80;41.10;;;;;;5048593;28;20131;-50
2022/07/24 09:20:21;;;;;;;3.15;0.80;;;39.70;42.60;;;;;;5048350;28;20048;-53
2022/07/24 09:22:47;;;;;;;1.50;0.70;;;39.50;43.10;;;;;;5048679;28;20159;-50
2022/07/24 09:25:15;;;;;;;2.80;0.80;;;39.50;43.20;;;;;;5048475;28;20116;-52
2022/07/24 09:27:54;;;;;;;2.78;1.00;;;39.70;43.40;;;;;;5048208;28;20048;-53
2022/07/24 09:30:27;;;;;;;2.83;1.10;;;40.30;44.10;;;;;;5030818;28;20048;-51
2022/07/24 09:32:58;;;;;;;2.53;0.77;;;40.40;42.30;;;;;;5048282;28;20268;-50
2022/07/24 09:35:39;;;;;;;1.20;0.75;;;40.10;41.90;;;;;;5048660;28;20607;-49
2022/07/24 09:38:10;;;;;;;3.13;1.15;;;40.10;42.30;;;;;;5048812;28;20045;-51
2022/07/24 09:40:49;;;;;;;3.10;0.80;;;40.10;42.80;;;;;;5048872;28;20048;-51
2022/07/24 09:43:27;;;;;;;1.98;0.80;;;39.80;42.60;;;;;;5048935;28;20070;-50
2022/07/24 09:45:58;;;;;;;1.98;0.80;;;40.10;43.50;;;;;;5048063;28;20041;-49
2022/07/24 09:48:31;;;;;;;1.52;0.77;;;41.40;42.80;;;;;;5048080;28;20048;-47
2022/07/24 09:51:03;;;;;;;1.20;0.60;;;42.60;42.70;;;;;;5047871;28;20055;-50
2022/07/24 09:53:31;;;;;;;3.55;1.33;;;42.90;40.10;;;;;;5048050;28;20111;-51
2022/07/24 09:56:12;;;;;;;0.90;0.50;;;43.00;39.80;;;;;;5047800;28;20048;-51
2022/07/24 09:58:51;;;;;;;1.48;0.50;;;43.50;40.20;;;;;;5047608;28;20049;-49
2022/07/24 10:01:19;;;;;;;2.45;0.50;;;42.30;39.70;;;;;;5047669;28;20128;-50
2022/07/24 10:03:46;;;;;;;2.95;0.73;;;41.20;40.50;;;;;;5047391;28;20095;-50
2022/07/24 10:06:15;;;;;;;1.35;0.85;;;39.90;41.20;;;;;;5047265;28;20138;-51
2022/07/24 10:08:42;;;;;;;2.05;0.60;;;39.30;42.20;;;;;;5047015;28;20083;-47
2022/07/24 10:11:09;;;;;;;1.45;0.70;;;39.30;43.20;;;;;;5047300;28;20045;-50
2022/07/24 10:13:35;;;;;;;1.77;0.75;;;38.30;42.50;;;;;;5047574;28;20128;-48
2022/07/24 10:16:13;;;;;;;1.75;0.60;;;39.70;43.20;;;;;;5047574;28;20048;-50
2022/07/24 10:18:59;;;;;;;1.52;0.57;;;40.50;43.30;;;;;;5047222;28;20128;-48
2022/07/24 10:21:29;;;;;;;1.55;0.60;;;40.90;41.60;;;;;;5047800;28;20060;-50
2022/07/24 10:24:03;;;;;;;1.23;0.70;;;41.40;41.40;;;;;;5047291;28;20048;-50
2022/07/24 10:26:45;;;;;;;2.35;0.80;;;42.10;41.70;;;;;;5029429;28;20292;-50
2022/07/24 10:29:15;;;;;;;4.00;0.60;;;42.30;40.20;;;;;;5047768;28;20573;-51
2022/07/24 10:32:09;;;;;;;3.95;0.50;;;42.10;40.30;;;;;;5047270;28;20098;-51
2022/07/24 10:35:04;;;;;;;2.33;0.60;;;41.60;40.60;;;;;;5044426;28;20569;-51
2022/07/24 10:37:41;;;;;;;3.72;0.80;;;41.60;40.90;;;;;;5047232;28;20048;-49
2022/07/24 10:40:10;;;;;;;1.80;0.65;;;40.80;40.80;;;;;;5047206;28;20141;-49
2022/07/24 10:43:09;;;;;;;2.17;0.88;;;40.30;41.70;;;;;;5046963;28;20048;-51
2022/07/24 10:45:56;;;;;;;1.77;0.80;;;39.70;42.20;;;;;;5029454;28;20076;-50
2022/07/24 10:48:22;;;;;;;3.10;0.52;;;39.50;42.20;;;;;;5047037;28;20041;-48
2022/07/24 10:50:57;;;;;;;1.08;0.63;;;40.00;41.50;;;;;;5046748;28;20041;-48
2022/07/24 10:53:46;;;;;;;3.05;0.68;;;39.60;41.60;;;;;;5047018;28;20053;-51
2022/07/24 10:56:24;;;;;;;2.63;0.82;;;38.90;42.30;;;;;;5046952;28;20048;-47
2022/07/24 10:59:10;;;;;;;2.05;0.50;;;37.90;68.70;;;;;;5028467;28;20053;-46
2022/07/24 11:01:35;;;;;;;1.50;0.88;;;36.90;58.90;;;;;;5046610;28;20048;-48
2022/07/24 11:04:18;;;;;;;2.20;0.60;;;36.40;63.20;;;;;;5046281;28;20051;-46
2022/07/24 11:06:49;;;;;;;3.75;0.70;;;35.70;46.30;;;;;;5046670;28;20041;-47
2022/07/24 11:09:17;;;;;;;2.20;0.90;;;35.30;47.60;;;;;;5047170;28;20049;-49
2022/07/24 11:12:06;;;;;;;3.70;0.68;;;34.70;48.00;;;;;;5046175;28;20126;-46
2022/07/24 11:14:38;;;;;;;2.22;0.60;;;34.40;79.50;;;;;;5045942;28;20045;-46
2022/07/24 11:17:41;;;;;;;2.10;0.70;;;33.90;81.90;;;;;;5046545;28;20123;-48
2022/07/24 11:20:12;;;;;;;2.17;0.70;;;33.60;80.10;;;;;;5046424;28;20637;-46
2022/07/24 11:22:57;;;;;;;2.80;1.10;;;33.30;82.00;;;;;;5046856;28;20391;-46
2022/07/24 11:25:28;;;;;;;2.67;1.05;;;32.90;82.60;;;;;;5046799;28;20439;-47
2022/07/24 11:27:58;;;;;;;1.50;0.60;;;32.40;50.00;;;;;;5046174;28;20477;-46
2022/07/24 11:30:29;;;;;;;1.80;1.13;;;31.90;50.60;;;;;;5046767;28;20090;-46
2022/07/24 11:32:56;;;;;;;2.58;0.80;;;31.60;51.80;;;;;;5046223;28;20549;-47
2022/07/24 11:35:35;;;;;;;1.10;0.70;;;31.40;52.10;;;;;;5046600;28;20048;-47
2022/07/24 11:38:03;;;;;;;2.85;0.90;;;31.30;52.60;;;;;;5046149;28;20053;-46
2022/07/24 11:40:30;;;;;;;1.75;0.98;;;31.30;52.50;;;;;;5046030;28;20538;-47
2022/07/24 11:42:57;;;;;;;1.98;0.80;;;31.50;53.30;;;;;;5046115;28;20398;-46
2022/07/24 11:45:23;;;;;;;3.65;0.98;;;31.40;53.30;;;;;;5046249;28;20095;-47
2022/07/24 11:47:49;;;;;;;1.88;0.65;;;31.20;57.10;;;;;;5045643;28;20040;-47
2022/07/24 11:50:14;;;;;;;2.58;0.90;;;30.90;57.20;;;;;;5045848;28;20044;-46
2022/07/24 11:52:41;;;;;;;2.33;1.25;;;30.60;55.00;;;;;;5045730;28;20041;-47
2022/07/24 11:55:13;;;;;;;1.25;0.85;;;30.10;55.40;;;;;;5044910;28;20071;-46
2022/07/24 11:57:40;;;;;;;3.00;0.80;;;30.00;55.50;;;;;;5045781;28;20170;-45
2022/07/24 12:00:10;;;;;;;2.60;0.90;;;29.90;57.40;;;;;;5045401;28;20095;-47
2022/07/24 12:02:37;;;;;;;2.63;1.00;;;29.90;59.10;;;;;;5046511;28;20056;-47
2022/07/24 12:05:03;;;;;;;3.22;0.90;;;29.60;56.50;;;;;;5045903;28;20056;-46
2022/07/24 12:07:29;;;;;;;2.75;0.88;;;29.40;57.70;;;;;;5045316;28;20181;-47
2022/07/24 12:09:56;;;;;;;5.13;1.02;;;29.40;59.60;;;;;;5044923;28;20491;-47
2022/07/24 12:12:30;;;;;;;3.50;1.08;;;29.40;59.90;;;;;;5045618;28;20045;-47
2022/07/24 12:15:02;;;;;;;2.53;0.70;;;29.40;59.30;;;;;;5045857;28;20049;-46
2022/07/24 12:17:29;;;;;;;1.35;0.73;;;29.30;58.80;;;;;;5046141;28;20052;-47
2022/07/24 12:19:57;;;;;;;2.28;1.45;;;29.20;60.00;;;;;;5045554;28;20368;-46
2022/07/24 12:22:25;;;;;;;2.50;0.90;;;28.90;63.50;;;;;;5045909;28;20126;-47
2022/07/24 12:24:52;;;;;;;1.65;0.70;;;28.70;62.80;;;;;;5045907;28;20041;-47
2022/07/24 12:27:33;;;;;;;3.67;1.05;;;28.50;57.90;;;;;;5046601;28;20509;-46
2022/07/24 12:29:59;;;;;;;2.53;0.80;;;28.50;57.30;;;;;;5049432;28;20048;-48
2022/07/24 12:32:26;;;;;;;1.90;1.10;;;28.40;57.40;;;;;;5049351;28;20163;-46
2022/07/24 12:34:52;;;;;;;4.30;0.93;;;28.30;57.90;;;;;;5049126;28;20118;-48
2022/07/24 12:37:20;;;;;;;2.45;0.80;;;28.30;58.40;;;;;;5049120;28;20052;-47
2022/07/24 12:39:47;;;;;;;2.47;1.25;;;28.20;59.20;;;;;;5048807;28;20394;-46
2022/07/24 12:42:13;;;;;;;3.70;1.00;;;28.10;70.90;;;;;;5048069;28;20542;-48
2022/07/24 12:44:42;;;;;;;4.15;0.93;;;27.90;79.20;;;;;;5048606;28;20099;-47
2022/07/24 12:47:08;;;;;;;3.83;1.15;;;27.90;74.30;;;;;;5048166;28;20056;-46
2022/07/24 12:49:46;;;;;;;2.22;0.88;;;27.70;72.80;;;;;;5048200;28;20465;-46